createdAt,value
2024-05-09T00:02:25.932Z,28.50
2024-05-09T00:04:56.907Z,46.78
2024-05-09T00:07:27.793Z,29.08
2024-05-09T00:09:58.426Z,28.48
2024-05-09T00:12:29.180Z,36.63
2024-05-09T00:15:00.355Z,36.95
2024-05-09T00:17:31.091Z,26.02
2024-05-09T00:20:02.012Z,28.00
2024-05-09T00:22:35.077Z,29.95
2024-05-09T00:25:06.407Z,29.00
2024-05-09T00:27:38.199Z,28.30
2024-05-09T00:30:17.423Z,28.65
2024-05-09T00:32:53.136Z,30.60
2024-05-09T00:35:24.529Z,28.67
2024-05-09T00:37:55.182Z,28.90
2024-05-09T00:40:35.396Z,32.30
2024-05-09T00:43:11.123Z,31.13
2024-05-09T00:45:42.573Z,30.92
2024-05-09T00:48:17.500Z,33.97
2024-05-09T00:50:52.190Z,37.70
2024-05-09T00:53:23.537Z,32.92
2024-05-09T00:55:57.092Z,33.47
2024-05-09T00:58:32.380Z,34.47
2024-05-09T01:01:04.756Z,32.33
2024-05-09T01:03:36.079Z,29.83
2024-05-09T01:06:07.783Z,31.27
2024-05-09T01:08:39.193Z,28.33
2024-05-09T01:11:10.938Z,28.35
2024-05-09T01:13:42.376Z,28.17
2024-05-09T01:16:15.848Z,38.70
2024-05-09T01:18:47.106Z,36.58
2024-05-09T01:21:18.695Z,36.00
2024-05-09T01:23:51.651Z,34.15
2024-05-09T01:26:23.435Z,27.92
2024-05-09T01:28:55.247Z,28.13
2024-05-09T01:31:26.307Z,28.42
2024-05-09T01:33:57.244Z,29.15
2024-05-09T01:36:28.712Z,31.02
2024-05-09T01:38:59.710Z,30.17
2024-05-09T01:41:30.962Z,30.30
2024-05-09T01:44:01.958Z,28.63
2024-05-09T01:46:33.561Z,47.83
2024-05-09T01:49:06.287Z,28.27
2024-05-09T01:51:37.857Z,28.73
2024-05-09T01:54:08.955Z,30.08
2024-05-09T01:56:40.024Z,33.22
2024-05-09T01:59:12.033Z,34.72
2024-05-09T02:01:56.393Z,32.03
2024-05-09T02:04:29.003Z,27.23
2024-05-09T02:07:03.071Z,28.75
2024-05-09T02:09:34.287Z,28.70
2024-05-09T02:12:06.565Z,29.92
2024-05-09T02:14:37.631Z,28.13
2024-05-09T02:17:08.989Z,28.08
2024-05-09T02:19:39.977Z,26.83
2024-05-09T02:22:11.259Z,28.85
2024-05-09T02:24:43.732Z,23.65
2024-05-09T02:27:15.130Z,25.10
2024-05-09T02:29:48.359Z,25.63
2024-05-09T02:32:19.447Z,24.02
2024-05-09T02:34:50.250Z,25.67
2024-05-09T02:37:21.439Z,24.60
2024-05-09T02:39:51.755Z,25.63
2024-05-09T02:42:23.093Z,25.20
2024-05-09T02:44:54.046Z,25.40
2024-05-09T02:47:25.716Z,26.95
2024-05-09T02:49:56.835Z,25.27
2024-05-09T02:52:28.306Z,26.75
2024-05-09T02:54:59.136Z,28.88
2024-05-09T02:57:29.989Z,26.30
2024-05-09T03:00:01.359Z,25.55
2024-05-09T03:02:33.418Z,27.25
2024-05-09T03:05:05.128Z,28.63
2024-05-09T03:07:36.667Z,26.58
2024-05-09T03:10:18.031Z,25.52
2024-05-09T03:12:53.379Z,25.73
2024-05-09T03:15:24.767Z,27.13
2024-05-09T03:17:55.684Z,25.75
2024-05-09T03:20:33.083Z,25.80
2024-05-09T03:23:07.137Z,26.45
2024-05-09T03:25:40.436Z,25.45
2024-05-09T03:28:11.630Z,27.27
2024-05-09T03:30:43.310Z,27.25
2024-05-09T03:33:20.261Z,28.58
2024-05-09T03:35:51.884Z,26.42
2024-05-09T03:38:22.841Z,27.92
2024-05-09T03:40:53.724Z,32.30
2024-05-09T03:43:25.200Z,29.30
2024-05-09T03:45:56.392Z,26.63
2024-05-09T03:48:28.187Z,27.52
2024-05-09T03:50:59.560Z,25.77
2024-05-09T03:53:30.988Z,23.42
2024-05-09T03:56:05.656Z,25.30
2024-05-09T03:58:37.223Z,24.25
2024-05-09T04:01:08.562Z,26.13
2024-05-09T04:03:39.871Z,26.92
2024-05-09T04:06:11.066Z,27.42
2024-05-09T04:08:42.290Z,27.02
2024-05-09T04:11:13.120Z,26.45
2024-05-09T04:13:45.275Z,26.17
2024-05-09T04:16:16.564Z,25.15
2024-05-09T04:18:48.115Z,25.95
2024-05-09T04:21:21.465Z,25.60
2024-05-09T04:23:53.013Z,25.60
2024-05-09T04:26:25.912Z,25.40
2024-05-09T04:28:57.254Z,23.02
2024-05-09T04:31:28.211Z,34.25
2024-05-09T04:33:59.554Z,27.30
2024-05-09T04:36:30.374Z,25.48
2024-05-09T04:39:01.615Z,25.13
2024-05-09T04:41:32.727Z,24.77
2024-05-09T04:44:04.510Z,24.20
2024-05-09T04:46:35.836Z,25.02
2024-05-09T04:49:08.224Z,24.65
2024-05-09T04:51:39.431Z,23.02
2024-05-09T04:54:22.110Z,23.02
2024-05-09T04:57:00.946Z,22.65
2024-05-09T04:59:32.393Z,22.77
2024-05-09T05:02:03.641Z,21.48
2024-05-09T05:04:35.258Z,26.65
2024-05-09T05:07:06.272Z,22.17
2024-05-09T05:09:39.627Z,19.90
2024-05-09T05:12:30.451Z,21.23
2024-05-09T05:15:02.421Z,21.38
2024-05-09T05:17:34.017Z,21.25
2024-05-09T05:20:07.152Z,19.30
2024-05-09T05:22:39.787Z,20.90
2024-05-09T05:25:11.201Z,20.02
2024-05-09T05:27:43.273Z,19.08
2024-05-09T05:30:21.206Z,21.25
2024-05-09T05:32:56.405Z,20.48
2024-05-09T05:35:27.924Z,20.10
2024-05-09T05:37:59.103Z,22.25
2024-05-09T05:40:36.385Z,21.55
2024-05-09T05:43:11.009Z,20.10
2024-05-09T05:45:42.661Z,20.08
2024-05-09T05:48:14.840Z,21.73
2024-05-09T05:50:47.218Z,20.92
2024-05-09T05:53:18.360Z,19.90
2024-05-09T05:55:50.032Z,22.33
2024-05-09T05:58:21.924Z,21.63
2024-05-09T06:00:55.063Z,21.35
2024-05-09T06:03:26.105Z,22.08
2024-05-09T06:06:06.602Z,22.15
2024-05-09T06:08:37.637Z,21.90
2024-05-09T06:11:09.002Z,20.95
2024-05-09T06:13:46.105Z,20.25
2024-05-09T06:16:17.905Z,20.25
2024-05-09T06:18:49.701Z,21.15
2024-05-09T06:21:21.123Z,20.45
2024-05-09T06:23:53.052Z,21.30
2024-05-09T06:26:26.906Z,21.63
2024-05-09T06:29:00.474Z,19.63
2024-05-09T06:31:32.001Z,20.63
2024-05-09T06:34:04.108Z,21.13
2024-05-09T06:36:35.495Z,21.23
2024-05-09T06:39:07.471Z,19.63
2024-05-09T06:41:38.646Z,20.00
2024-05-09T06:44:12.156Z,19.33
2024-05-09T06:46:43.766Z,20.35
2024-05-09T06:49:15.895Z,20.25
2024-05-09T06:51:48.943Z,20.05
2024-05-09T06:54:20.930Z,23.63
2024-05-09T06:56:52.091Z,20.80
2024-05-09T06:59:23.916Z,20.35
2024-05-09T07:01:55.516Z,20.45
2024-05-09T07:04:26.740Z,19.83
2024-05-09T07:06:57.752Z,19.92
2024-05-09T07:09:29.585Z,19.25
2024-05-09T07:12:19.999Z,19.27
2024-05-09T07:14:51.984Z,20.13
2024-05-09T07:17:23.735Z,20.75
2024-05-09T07:19:55.722Z,20.80
2024-05-09T07:22:27.306Z,21.27
2024-05-09T07:24:58.655Z,20.67
2024-05-09T07:27:29.941Z,20.90
2024-05-09T07:30:05.502Z,21.25
2024-05-09T07:32:37.811Z,33.10
2024-05-09T07:35:09.324Z,30.23
2024-05-09T07:37:42.647Z,27.35
2024-05-09T07:40:24.093Z,21.15
2024-05-09T07:43:00.194Z,19.55
2024-05-09T07:45:48.194Z,20.42
2024-05-09T07:53:40.581Z,21.02
2024-05-09T07:56:18.315Z,22.10
2024-05-09T07:58:52.325Z,20.45
2024-05-09T08:01:23.628Z,21.42
2024-05-09T08:03:54.548Z,20.73
2024-05-09T08:06:26.674Z,21.00
2024-05-09T08:09:00.712Z,20.52
2024-05-09T08:11:35.591Z,20.92
2024-05-09T08:14:08.641Z,21.63
2024-05-09T08:16:39.814Z,20.13
2024-05-09T08:19:10.733Z,20.65
2024-05-09T08:21:41.859Z,21.35
2024-05-09T08:24:12.988Z,20.55
2024-05-09T08:26:44.011Z,22.23
2024-05-09T08:29:15.144Z,21.50
2024-05-09T08:31:47.429Z,21.25
2024-05-09T08:34:19.755Z,22.30
2024-05-09T08:36:50.933Z,21.80
2024-05-09T08:39:22.189Z,24.80
2024-05-09T08:41:54.813Z,22.80
2024-05-09T08:44:26.481Z,21.23
2024-05-09T08:46:58.887Z,22.02
2024-05-09T08:49:29.717Z,22.98
2024-05-09T08:52:01.130Z,25.25
2024-05-09T08:54:33.146Z,23.98
2024-05-09T08:57:04.604Z,25.02
2024-05-09T08:59:43.460Z,23.85
2024-05-09T09:02:16.802Z,25.83
2024-05-09T09:05:18.455Z,23.83
2024-05-09T09:07:51.239Z,24.10
2024-05-09T09:10:29.930Z,23.88
2024-05-09T09:13:09.400Z,24.30
2024-05-09T09:16:00.810Z,24.85
2024-05-09T09:18:32.386Z,25.10
2024-05-09T09:21:04.787Z,24.73
2024-05-09T09:23:36.360Z,24.33
2024-05-09T09:26:07.498Z,24.50
2024-05-09T09:28:42.283Z,25.38
2024-05-09T09:31:14.016Z,24.77
2024-05-09T09:33:46.870Z,24.33
2024-05-09T09:36:20.467Z,23.45
2024-05-09T09:38:53.710Z,25.20
2024-05-09T09:41:27.814Z,26.55
2024-05-09T09:43:59.803Z,24.00
2024-05-09T09:46:31.885Z,24.40
2024-05-09T09:49:03.132Z,24.48
2024-05-09T09:51:35.434Z,25.77
2024-05-09T09:54:07.966Z,25.77
2024-05-09T09:56:41.928Z,24.48
2024-05-09T09:59:15.833Z,23.70
2024-05-09T10:01:50.323Z,25.95
2024-05-09T10:04:22.490Z,25.08
2024-05-09T10:07:01.747Z,24.20
2024-05-09T10:09:34.459Z,25.20
2024-05-09T10:12:18.429Z,25.38
2024-05-09T10:14:54.105Z,27.67
2024-05-09T10:17:24.919Z,29.40
2024-05-09T10:20:14.791Z,31.95
2024-05-09T10:22:52.429Z,26.95
2024-05-09T10:25:23.423Z,31.08
2024-05-09T10:27:58.197Z,30.58
2024-05-09T10:30:35.619Z,29.23
2024-05-09T10:33:13.628Z,30.17
2024-05-09T10:35:54.675Z,31.17
2024-05-09T10:38:26.962Z,33.95
2024-05-09T10:41:00.869Z,34.55
2024-05-09T10:43:33.062Z,30.10
2024-05-09T10:46:04.254Z,32.13
2024-05-09T10:48:35.957Z,34.83
2024-05-09T10:51:07.934Z,27.23
2024-05-09T10:53:46.841Z,27.25
2024-05-09T10:56:18.288Z,29.00
2024-05-09T10:58:53.094Z,26.40
2024-05-09T11:01:26.686Z,30.52
2024-05-09T11:03:59.504Z,26.92
2024-05-09T11:06:32.029Z,27.30
2024-05-09T11:09:03.557Z,29.02
2024-05-09T11:11:34.953Z,29.23
2024-05-09T11:14:15.195Z,25.50
2024-05-09T11:16:46.369Z,24.30
2024-05-09T11:19:20.305Z,22.98
2024-05-09T11:21:55.217Z,24.52
2024-05-09T11:24:27.990Z,27.05
2024-05-09T11:27:04.585Z,25.25
2024-05-09T11:29:49.291Z,27.20
2024-05-09T11:32:31.773Z,23.77
2024-05-09T11:35:04.054Z,25.05
2024-05-09T11:37:37.367Z,27.23
2024-05-09T11:40:13.942Z,27.27
2024-05-09T11:42:53.581Z,26.77
2024-05-09T11:45:25.119Z,27.15
2024-05-09T11:47:56.250Z,27.48
2024-05-09T11:50:33.051Z,28.05
2024-05-09T11:53:06.382Z,24.55
2024-05-09T11:55:38.165Z,28.08
2024-05-09T11:58:10.153Z,23.67
2024-05-09T12:00:41.276Z,24.42
2024-05-09T12:03:12.556Z,24.95
2024-05-09T12:05:43.594Z,24.17
2024-05-09T12:08:15.927Z,23.67
2024-05-09T12:10:46.939Z,27.42
2024-05-09T12:13:18.158Z,24.23
2024-05-09T12:15:49.342Z,23.88
2024-05-09T12:18:20.403Z,24.52
2024-05-09T12:20:51.297Z,27.52
2024-05-09T12:23:22.745Z,27.48
2024-05-09T12:25:54.297Z,27.20
2024-05-09T12:28:25.428Z,26.58
2024-05-09T12:30:56.352Z,27.73
2024-05-09T12:33:28.268Z,31.85
2024-05-09T12:35:59.884Z,28.40
2024-05-09T12:38:32.986Z,26.45
2024-05-09T12:41:04.126Z,24.73
2024-05-09T12:43:36.540Z,21.90
2024-05-09T12:46:07.821Z,21.80
2024-05-09T12:48:39.728Z,19.65
2024-05-09T12:51:10.907Z,19.48
2024-05-09T12:53:42.299Z,19.00
2024-05-09T12:56:13.436Z,18.38
2024-05-09T12:58:43.896Z,17.58
2024-05-09T13:01:14.524Z,18.15
2024-05-09T13:03:50.102Z,18.90
2024-05-09T13:06:22.517Z,18.77
2024-05-09T13:08:53.404Z,17.52
2024-05-09T13:11:24.129Z,18.92
2024-05-09T13:13:56.277Z,17.20
2024-05-09T13:16:27.873Z,17.55
2024-05-09T13:18:58.591Z,18.98
2024-05-09T13:21:30.273Z,20.15
2024-05-09T13:24:01.023Z,23.13
2024-05-09T13:26:31.808Z,23.88
2024-05-09T13:29:05.584Z,24.90
2024-05-09T13:31:36.523Z,24.63
2024-05-09T13:34:07.476Z,38.92
2024-05-09T13:36:38.893Z,32.13
2024-05-09T13:39:15.500Z,28.73
2024-05-09T13:41:47.858Z,28.13
2024-05-09T13:44:18.938Z,28.42
2024-05-09T13:46:50.805Z,28.55
2024-05-09T13:49:22.922Z,27.77
2024-05-09T13:51:55.480Z,27.70
2024-05-09T13:54:26.656Z,20.25
2024-05-09T13:57:03.020Z,17.85
2024-05-09T13:59:34.866Z,17.55
2024-05-09T14:02:06.435Z,23.02
2024-05-09T14:04:42.327Z,18.80
2024-05-09T14:07:16.566Z,20.17
2024-05-09T14:09:49.009Z,19.95
2024-05-09T14:12:19.939Z,20.33
2024-05-09T14:14:52.000Z,25.33
2024-05-09T14:17:24.992Z,24.80
2024-05-09T14:19:57.710Z,21.45
2024-05-09T14:22:29.270Z,29.15
2024-05-09T14:25:05.743Z,39.40
2024-05-09T14:27:38.833Z,38.67
2024-05-09T14:30:18.312Z,39.70
2024-05-09T14:33:00.266Z,23.42
2024-05-09T14:35:33.011Z,21.88
2024-05-09T14:38:04.593Z,39.95
2024-05-09T14:40:42.999Z,22.33
2024-05-09T14:43:16.452Z,21.75
2024-05-09T14:45:48.474Z,21.45
2024-05-09T14:48:21.830Z,34.35
2024-05-09T14:50:57.138Z,22.85
2024-05-09T14:53:30.386Z,21.25
2024-05-09T14:56:03.337Z,23.40
2024-05-09T14:58:36.213Z,21.30
2024-05-09T15:01:08.365Z,21.17
2024-05-09T15:03:41.345Z,21.30
2024-05-09T15:06:15.495Z,20.23
2024-05-09T15:08:46.353Z,19.60
2024-05-09T15:11:18.950Z,19.58
2024-05-09T15:13:50.818Z,18.83
2024-05-09T15:16:23.599Z,19.30
2024-05-09T15:18:55.107Z,20.25
2024-05-09T15:21:26.624Z,22.02
2024-05-09T15:23:57.956Z,18.95
2024-05-09T15:26:29.357Z,19.80
2024-05-09T15:29:01.076Z,20.50
2024-05-09T15:31:33.307Z,19.60
2024-05-09T15:34:05.801Z,21.17
2024-05-09T15:36:40.367Z,23.00
2024-05-09T15:39:12.840Z,21.02
2024-05-09T15:41:48.887Z,19.70
2024-05-09T15:44:23.974Z,19.17
2024-05-09T15:46:56.402Z,18.52
2024-05-09T15:49:27.848Z,18.63
2024-05-09T15:52:06.187Z,19.65
2024-05-09T15:54:37.909Z,18.48
2024-05-09T15:57:10.171Z,20.02
2024-05-09T15:59:44.476Z,18.42
2024-05-09T16:02:19.627Z,15.82
2024-05-09T16:04:52.195Z,17.40
2024-05-09T16:07:23.346Z,19.90
2024-05-09T16:09:54.415Z,15.88
2024-05-09T16:12:25.050Z,17.67
2024-05-09T16:14:56.085Z,17.55
2024-05-09T16:17:27.330Z,17.67
2024-05-09T16:20:02.029Z,17.58
2024-05-09T16:22:33.618Z,17.65
2024-05-09T16:25:05.062Z,18.40
2024-05-09T16:27:35.886Z,20.02
2024-05-09T16:30:11.958Z,18.05
2024-05-09T16:32:48.366Z,19.38
2024-05-09T16:35:20.973Z,18.70
2024-05-09T16:37:52.445Z,18.42
2024-05-09T16:40:30.308Z,21.33
2024-05-09T16:43:12.492Z,18.52
2024-05-09T16:45:46.335Z,20.13
2024-05-09T16:48:18.878Z,21.55
2024-05-09T16:50:51.362Z,21.10
2024-05-09T16:53:23.509Z,22.80
2024-05-09T16:55:55.876Z,22.83
2024-05-09T16:58:28.768Z,23.85
2024-05-09T17:01:00.422Z,22.20
2024-05-09T17:03:31.863Z,23.95
2024-05-09T17:06:07.226Z,23.30
2024-05-09T17:08:39.823Z,23.80
2024-05-09T17:11:14.799Z,21.75
2024-05-09T17:13:48.001Z,22.33
2024-05-09T17:16:20.299Z,21.80
2024-05-09T17:18:53.223Z,23.60
2024-05-09T17:21:25.037Z,24.83
2024-05-09T17:23:57.391Z,25.75
2024-05-09T17:26:28.708Z,24.75
2024-05-09T17:29:01.032Z,27.05
2024-05-09T17:31:31.950Z,26.52
2024-05-09T17:34:03.399Z,25.83
2024-05-09T17:36:34.228Z,26.25
2024-05-09T17:39:05.058Z,26.00
2024-05-09T17:41:36.721Z,24.48
2024-05-09T17:44:09.024Z,25.77
2024-05-09T17:46:40.531Z,24.65
2024-05-09T17:49:10.915Z,26.02
2024-05-09T17:51:52.291Z,23.27
2024-05-09T17:54:23.665Z,24.77
2024-05-09T17:56:54.667Z,25.80
2024-05-09T17:59:25.899Z,25.83
2024-05-09T18:01:57.014Z,26.65
2024-05-09T18:04:29.714Z,25.52
2024-05-09T18:07:01.795Z,24.48
2024-05-09T18:09:32.920Z,26.30
2024-05-09T18:12:04.221Z,24.52
2024-05-09T18:14:34.936Z,25.58
2024-05-09T18:17:06.298Z,26.80
2024-05-09T18:19:37.123Z,24.17
2024-05-09T18:22:08.528Z,27.50
2024-05-09T18:24:39.152Z,28.00
2024-05-09T18:27:10.203Z,27.77
2024-05-09T18:29:41.080Z,27.15
2024-05-09T18:32:12.018Z,28.00
2024-05-09T18:34:43.214Z,25.17
2024-05-09T18:37:14.690Z,26.70
2024-05-09T18:39:45.697Z,25.00
2024-05-09T18:42:16.935Z,25.05
2024-05-09T18:44:48.990Z,26.00
2024-05-09T18:47:20.596Z,25.42
2024-05-09T18:49:52.393Z,24.80
2024-05-09T18:52:23.742Z,25.35
2024-05-09T18:54:55.081Z,25.58
2024-05-09T18:57:27.654Z,26.50
2024-05-09T18:59:58.796Z,26.17
2024-05-09T19:02:30.073Z,25.92
2024-05-09T19:05:01.477Z,26.15
2024-05-09T19:07:33.015Z,29.80
2024-05-09T19:10:05.573Z,27.33
2024-05-09T19:12:36.993Z,27.33
2024-05-09T19:15:08.167Z,27.80
2024-05-09T19:17:40.215Z,29.27
2024-05-09T19:20:20.611Z,29.60
2024-05-09T19:22:59.644Z,30.50
2024-05-09T19:25:30.383Z,30.80
2024-05-09T19:28:02.061Z,30.95
2024-05-09T19:30:39.258Z,29.13
2024-05-09T19:33:14.544Z,30.35
2024-05-09T19:35:46.247Z,30.10
2024-05-09T19:38:17.822Z,30.80
2024-05-09T19:40:49.101Z,28.10
2024-05-09T19:43:20.423Z,30.00
2024-05-09T19:45:52.795Z,29.80
2024-05-09T19:48:24.734Z,30.60
2024-05-09T19:50:55.667Z,28.52
2024-05-09T19:53:26.912Z,33.90
2024-05-09T19:55:59.404Z,29.67
2024-05-09T19:58:30.206Z,30.15
2024-05-09T20:01:01.050Z,31.50
2024-05-09T20:03:33.934Z,27.50
2024-05-09T20:06:04.870Z,26.55
2024-05-09T20:08:36.303Z,28.50
2024-05-09T20:11:07.617Z,30.50
2024-05-09T20:13:39.441Z,31.13
2024-05-09T20:16:10.588Z,30.88
2024-05-09T20:18:41.109Z,31.65
2024-05-09T20:21:12.062Z,30.58
2024-05-09T20:23:42.705Z,30.85
2024-05-09T20:26:13.916Z,31.33
2024-05-09T20:28:46.483Z,31.48
2024-05-09T20:31:23.069Z,32.63
2024-05-09T20:33:53.653Z,29.75
2024-05-09T20:36:24.166Z,31.10
2024-05-09T20:38:55.082Z,31.58
2024-05-09T20:41:25.869Z,28.75
2024-05-09T20:43:59.739Z,26.48
2024-05-09T20:46:32.068Z,27.48
2024-05-09T20:49:03.252Z,32.20
2024-05-09T20:51:34.216Z,31.77
2024-05-09T20:54:05.567Z,29.52
2024-05-09T20:56:35.918Z,28.38
2024-05-09T20:59:07.162Z,30.33
2024-05-09T21:01:38.022Z,29.17
2024-05-09T21:04:09.513Z,29.63
2024-05-09T21:06:39.930Z,30.45
2024-05-09T21:09:11.341Z,32.13
2024-05-09T21:11:41.959Z,29.77
2024-05-09T21:14:12.852Z,33.63
2024-05-09T21:16:43.507Z,32.72
2024-05-09T21:19:14.358Z,34.15
2024-05-09T21:21:45.465Z,32.78
2024-05-09T21:24:15.994Z,32.10
2024-05-09T21:26:46.905Z,34.10
2024-05-09T21:29:17.654Z,32.65
2024-05-09T21:31:48.419Z,35.38
2024-05-09T21:34:19.468Z,35.72
2024-05-09T21:36:50.149Z,34.03
2024-05-09T21:39:21.334Z,34.70
2024-05-09T21:41:52.274Z,35.30
2024-05-09T21:44:23.228Z,31.42
2024-05-09T21:46:55.144Z,35.53
2024-05-09T21:49:26.422Z,34.20
2024-05-09T21:51:57.177Z,32.88
2024-05-09T21:54:28.797Z,33.92
2024-05-09T21:56:59.695Z,34.88
2024-05-09T21:59:31.348Z,34.55
2024-05-09T22:02:02.531Z,31.95
2024-05-09T22:04:33.600Z,35.70
2024-05-09T22:07:06.233Z,35.88
2024-05-09T22:09:37.522Z,34.55
2024-05-09T22:12:08.962Z,36.75
2024-05-09T22:14:39.714Z,35.40
2024-05-09T22:17:10.888Z,36.95
2024-05-09T22:19:42.398Z,41.05
2024-05-09T22:22:13.769Z,32.50
2024-05-09T22:24:44.802Z,38.67
2024-05-09T22:27:16.143Z,33.90
2024-05-09T22:29:47.409Z,31.42
2024-05-09T22:32:18.757Z,34.38
2024-05-09T22:34:49.756Z,36.25
2024-05-09T22:37:21.404Z,34.00
2024-05-09T22:39:52.506Z,35.55
2024-05-09T22:42:23.399Z,34.80
2024-05-09T22:44:55.135Z,39.72
2024-05-09T22:47:27.483Z,39.78
2024-05-09T22:49:58.333Z,40.15
2024-05-09T22:52:28.830Z,55.40
2024-05-09T22:54:59.708Z,41.33
2024-05-09T22:57:30.437Z,42.03
2024-05-09T23:00:00.482Z,37.65
2024-05-09T23:02:31.620Z,35.67
2024-05-09T23:05:02.449Z,41.30
2024-05-09T23:07:33.642Z,34.50
2024-05-09T23:10:05.479Z,44.15
2024-05-09T23:12:40.302Z,38.53
2024-05-09T23:15:11.130Z,37.13
2024-05-09T23:17:52.938Z,37.83
2024-05-09T23:20:33.391Z,34.50
2024-05-09T23:23:10.981Z,40.75
2024-05-09T23:25:43.923Z,40.60
2024-05-09T23:28:15.084Z,43.53
2024-05-09T23:30:45.656Z,43.15
2024-05-09T23:33:16.346Z,40.55
2024-05-09T23:35:46.925Z,39.78
2024-05-09T23:38:18.404Z,40.83
2024-05-09T23:40:51.219Z,38.92
2024-05-09T23:43:21.758Z,40.50
2024-05-09T23:45:52.953Z,46.35
2024-05-09T23:48:25.223Z,47.90
2024-05-09T23:50:56.581Z,57.60
2024-05-09T23:53:26.993Z,51.95
2024-05-09T23:55:58.000Z,47.45
2024-05-09T23:58:29.943Z,42.83
